createdAt,value
2019-03-08T00:04:47.666Z,0.60
2019-03-08T00:09:54.203Z,0.47
2019-03-08T00:15:00.750Z,0.50
2019-03-08T00:20:08.669Z,0.65
2019-03-08T00:25:15.702Z,0.88
2019-03-08T00:30:22.313Z,0.75
2019-03-08T00:35:28.914Z,0.82
2019-03-08T00:40:35.448Z,0.70
2019-03-08T00:45:42.244Z,0.78
2019-03-08T00:50:48.996Z,0.70
2019-03-08T00:55:55.915Z,0.70
2019-03-08T01:01:02.590Z,0.80
2019-03-08T01:06:09.192Z,0.80
2019-03-08T01:11:15.727Z,1.20
2019-03-08T01:16:22.256Z,0.88
2019-03-08T01:21:28.860Z,0.53
2019-03-08T01:26:35.385Z,0.47
2019-03-08T01:31:41.914Z,0.90
2019-03-08T01:36:48.540Z,0.60
2019-03-08T01:41:55.151Z,0.60
2019-03-08T01:47:02.856Z,0.70
2019-03-08T01:52:09.446Z,0.57
2019-03-08T01:57:16.038Z,0.60
2019-03-08T02:02:22.676Z,0.45
2019-03-08T02:07:29.306Z,0.70
2019-03-08T02:12:35.824Z,0.85
2019-03-08T02:17:42.444Z,0.70
2019-03-08T02:22:49.228Z,0.53
2019-03-08T02:27:55.783Z,0.75
2019-03-08T02:33:02.649Z,0.80
2019-03-08T02:38:09.165Z,0.70
2019-03-08T02:43:18.358Z,0.60
2019-03-08T02:48:24.734Z,0.70
2019-03-08T02:53:31.335Z,0.70
2019-03-08T02:58:37.958Z,0.70
2019-03-08T03:03:44.439Z,0.50
2019-03-08T03:08:51.090Z,1.05
2019-03-08T03:13:57.575Z,0.65
2019-03-08T03:19:04.109Z,0.60
2019-03-08T03:24:10.651Z,0.82
2019-03-08T03:29:17.189Z,0.70
2019-03-08T03:34:23.805Z,0.72
2019-03-08T03:39:30.315Z,0.90
2019-03-08T03:44:36.908Z,0.80
2019-03-08T03:49:43.459Z,0.80
2019-03-08T03:54:49.990Z,0.55
2019-03-08T03:59:56.559Z,0.57
2019-03-08T04:05:04.581Z,0.57
2019-03-08T04:10:12.305Z,0.88
2019-03-08T04:15:19.138Z,1.12
2019-03-08T04:20:25.876Z,0.80
2019-03-08T04:25:32.401Z,0.70
2019-03-08T04:30:40.146Z,0.50
2019-03-08T04:35:46.757Z,0.70
2019-03-08T04:40:53.218Z,0.90
2019-03-08T04:45:59.681Z,0.68
2019-03-08T04:51:06.348Z,0.80
2019-03-08T04:56:12.883Z,0.53
2019-03-08T05:01:19.298Z,0.80
2019-03-08T05:06:25.854Z,0.70
2019-03-08T05:11:32.403Z,0.50
2019-03-08T05:16:39.021Z,0.72
2019-03-08T05:21:45.550Z,0.60
2019-03-08T05:26:52.084Z,0.80
2019-03-08T05:31:58.469Z,0.60
2019-03-08T05:37:05.224Z,0.40
2019-03-08T05:42:11.681Z,0.50
2019-03-08T05:47:18.556Z,0.62
2019-03-08T05:52:25.035Z,0.40
2019-03-08T05:57:31.421Z,0.57
2019-03-08T06:02:38.228Z,0.50
2019-03-08T06:07:44.860Z,0.72
2019-03-08T06:12:51.326Z,0.60
2019-03-08T06:17:58.035Z,0.60
2019-03-08T06:23:04.851Z,0.70
2019-03-08T06:28:11.503Z,0.70
2019-03-08T06:33:17.989Z,0.60
2019-03-08T06:38:24.491Z,0.62
2019-03-08T06:43:31.247Z,0.55
2019-03-08T06:48:37.637Z,0.70
2019-03-08T06:53:44.022Z,0.60
2019-03-08T06:58:57.071Z,0.50
2019-03-08T07:04:03.537Z,0.50
2019-03-08T07:09:10.318Z,1.40
2019-03-08T07:14:16.936Z,0.82
2019-03-08T07:19:23.418Z,0.70
2019-03-08T07:24:48.909Z,0.50
2019-03-08T07:30:20.335Z,0.60
2019-03-08T07:36:03.995Z,0.60
2019-03-08T07:41:24.798Z,0.60
2019-03-08T07:46:46.880Z,1.12
2019-03-08T07:52:08.199Z,0.60
2019-03-08T07:57:36.968Z,0.72
2019-03-08T08:03:05.562Z,0.60
2019-03-08T08:08:19.567Z,0.70
2019-03-08T08:13:34.036Z,0.70
2019-03-08T08:18:58.478Z,0.50
2019-03-08T08:24:25.289Z,0.72
2019-03-08T08:29:47.246Z,0.70
2019-03-08T08:35:18.821Z,0.80
2019-03-08T08:40:44.336Z,1.10
2019-03-08T08:46:10.236Z,0.90
2019-03-08T08:51:38.425Z,0.70
2019-03-08T08:57:04.005Z,1.07
2019-03-08T09:02:32.196Z,0.70
2019-03-08T09:07:43.697Z,0.85
2019-03-08T09:12:55.814Z,0.95
2019-03-08T09:18:21.339Z,0.80
2019-03-08T09:23:46.833Z,1.00
2019-03-08T09:29:00.904Z,0.80
2019-03-08T09:34:18.582Z,1.05
2019-03-08T09:40:02.482Z,1.02
2019-03-08T09:45:17.075Z,1.27
2019-03-08T09:50:36.490Z,1.02
2019-03-08T09:56:14.283Z,0.82
2019-03-08T10:01:33.687Z,0.80
2019-03-08T10:07:01.053Z,1.10
2019-03-08T10:12:29.931Z,0.90
2019-03-08T10:17:44.253Z,0.80
2019-03-08T10:23:09.170Z,1.12
2019-03-08T10:28:43.833Z,1.27
2019-03-08T10:34:11.969Z,0.70
2019-03-08T10:39:35.914Z,0.70
2019-03-08T10:50:56.378Z,1.37
2019-03-08T10:56:09.773Z,1.00
2019-03-08T11:01:29.571Z,1.10
2019-03-08T11:06:53.766Z,0.88
2019-03-08T11:12:31.487Z,1.07
2019-03-08T11:18:03.004Z,1.90
2019-03-08T11:23:29.435Z,1.30
2019-03-08T11:28:53.832Z,1.20
2019-03-08T11:34:19.328Z,1.15
2019-03-08T11:39:35.342Z,1.35
2019-03-08T11:45:03.734Z,1.10
2019-03-08T11:50:26.706Z,1.10
2019-03-08T11:56:03.639Z,1.30
2019-03-08T12:01:35.367Z,1.35
2019-03-08T12:07:00.802Z,1.10
2019-03-08T12:12:25.389Z,1.10
2019-03-08T12:17:38.867Z,0.50
2019-03-08T12:22:53.542Z,0.47
2019-03-08T12:28:33.988Z,0.90
2019-03-08T12:33:52.772Z,0.80
2019-03-08T12:39:17.944Z,0.80
2019-03-08T12:44:33.496Z,0.70
2019-03-08T12:49:53.292Z,0.50
2019-03-08T12:55:17.300Z,0.50
2019-03-08T13:00:36.772Z,0.70
2019-03-08T13:05:59.028Z,0.70
2019-03-08T13:11:05.646Z,0.70
2019-03-08T13:16:12.270Z,0.72
2019-03-08T13:21:18.641Z,0.70
2019-03-08T13:26:25.219Z,0.80
2019-03-08T13:31:31.823Z,0.70
2019-03-08T13:36:38.460Z,0.70
2019-03-08T13:41:44.969Z,0.70
2019-03-08T13:46:51.498Z,0.80
2019-03-08T13:51:58.226Z,0.82
2019-03-08T13:57:04.759Z,0.88
2019-03-08T14:02:11.318Z,1.00
2019-03-08T14:07:17.888Z,0.90
2019-03-08T14:12:24.510Z,1.02
2019-03-08T14:17:31.260Z,1.20
2019-03-08T14:22:38.016Z,1.05
2019-03-08T14:27:44.701Z,0.88
2019-03-08T14:32:51.313Z,1.02
2019-03-08T14:37:58.058Z,1.10
2019-03-08T14:43:29.620Z,0.98
2019-03-08T14:48:36.237Z,1.00
2019-03-08T14:53:42.701Z,1.47
2019-03-08T14:58:50.613Z,1.25
2019-03-08T15:03:57.819Z,1.60
2019-03-08T15:09:06.518Z,1.50
2019-03-08T15:14:13.814Z,2.55
2019-03-08T15:19:20.427Z,2.02
2019-03-08T15:24:26.879Z,2.37
2019-03-08T15:29:33.464Z,2.12
2019-03-08T15:34:40.023Z,2.47
2019-03-08T15:39:46.488Z,2.15
2019-03-08T15:44:53.133Z,2.50
2019-03-08T15:49:59.756Z,1.65
2019-03-08T15:55:07.252Z,1.82
2019-03-08T16:00:19.154Z,2.17
2019-03-08T16:05:28.468Z,1.70
2019-03-08T16:10:34.090Z,1.95
2019-03-08T16:15:40.631Z,2.00
2019-03-08T16:20:47.169Z,2.08
2019-03-08T16:25:53.695Z,1.90
2019-03-08T16:31:09.981Z,2.25
2019-03-08T16:36:24.672Z,1.70
2019-03-08T16:41:52.386Z,2.20
2019-03-08T16:47:08.930Z,1.70
2019-03-08T16:52:41.507Z,1.95
2019-03-08T16:57:58.227Z,2.00
2019-03-08T17:03:11.772Z,1.98
2019-03-08T17:08:24.839Z,2.00
2019-03-08T17:13:53.066Z,2.02
2019-03-08T17:19:16.388Z,2.00
2019-03-08T17:24:45.412Z,2.10
2019-03-08T17:30:03.350Z,2.00
2019-03-08T17:35:31.495Z,2.02
2019-03-08T17:40:59.881Z,2.42
2019-03-08T17:46:26.073Z,1.95
2019-03-08T17:51:46.202Z,2.17
2019-03-08T17:57:14.560Z,2.42
2019-03-08T18:02:40.038Z,2.55
2019-03-08T18:07:53.516Z,2.72
2019-03-08T18:13:18.042Z,2.83
2019-03-08T18:18:43.567Z,3.17
2019-03-08T18:24:05.904Z,2.12
2019-03-08T18:29:25.121Z,2.30
2019-03-08T18:35:02.636Z,2.60
2019-03-08T18:40:35.128Z,2.12
2019-03-08T18:45:59.371Z,2.70
2019-03-08T18:51:39.953Z,2.85
2019-03-08T18:57:11.228Z,2.22
2019-03-08T19:08:11.011Z,2.45
2019-03-08T19:13:39.305Z,2.65
2019-03-08T19:19:13.848Z,2.52
2019-03-08T19:30:09.836Z,3.08
2019-03-08T19:35:53.552Z,3.20
2019-03-08T19:41:22.077Z,2.27
2019-03-08T19:46:46.882Z,3.15
2019-03-08T19:52:21.145Z,3.12
2019-03-08T20:03:14.062Z,3.08
2019-03-08T20:08:39.504Z,3.45
2019-03-08T20:14:05.027Z,3.37
2019-03-08T20:19:22.808Z,3.98
2019-03-08T20:24:37.315Z,3.55
2019-03-08T20:30:05.821Z,3.30
2019-03-08T20:35:34.378Z,3.45
2019-03-08T20:40:50.003Z,3.47
2019-03-08T20:46:30.784Z,4.00
2019-03-08T20:51:37.343Z,4.05
2019-03-08T20:56:44.248Z,4.00
2019-03-08T21:01:50.966Z,4.40
2019-03-08T21:06:57.592Z,4.67
2019-03-08T21:12:04.197Z,5.00
2019-03-08T21:17:10.829Z,4.85
2019-03-08T21:22:17.369Z,4.33
2019-03-08T21:27:23.837Z,4.62
2019-03-08T21:32:30.383Z,4.42
2019-03-08T21:37:37.013Z,4.78
2019-03-08T21:42:43.648Z,5.00
2019-03-08T21:47:50.376Z,4.92
2019-03-08T21:52:56.986Z,4.83
2019-03-08T21:58:03.517Z,5.28
2019-03-08T22:03:10.138Z,5.97
2019-03-08T22:08:17.941Z,5.08
2019-03-08T22:13:24.747Z,6.65
2019-03-08T22:18:31.226Z,6.60
2019-03-08T22:23:37.765Z,6.53
2019-03-08T22:28:44.223Z,6.17
2019-03-08T22:33:50.693Z,5.47
2019-03-08T22:38:57.222Z,6.08
2019-03-08T22:44:03.837Z,5.78
2019-03-08T22:49:10.231Z,5.50
2019-03-08T22:54:16.763Z,5.65
2019-03-08T22:59:23.152Z,5.53
2019-03-08T23:04:29.714Z,5.30
2019-03-08T23:09:36.335Z,4.58
2019-03-08T23:14:42.940Z,4.45
2019-03-08T23:19:49.552Z,3.98
2019-03-08T23:24:56.170Z,4.80
2019-03-08T23:30:07.315Z,3.75
2019-03-08T23:35:14.044Z,4.05
2019-03-08T23:40:21.647Z,4.12
2019-03-08T23:45:28.190Z,5.10
2019-03-08T23:50:34.810Z,4.47
2019-03-08T23:55:41.423Z,4.45
